Terminal Aerodrome Forecast
Issued by NWS

Home | Current Version | Previous Version | Text Only | Print | Product List | Glossary On
Versions: 1 2 3 4 5 6 7 8 9 10 11 12
096
FTUS42 KMLB 211746
TAFSFB
TAF
KSFB 211746Z 2118/2218 21012G18KT P6SM SCT040 SCT080
     FM220000 20006KT P6SM SCT150 BKN250
     FM220800 19008KT P6SM SCT010 BKN035 WS015/22030KT
     FM221300 20015G23KT P6SM SCT015 BKN035=

USA.gov is the U.S. government's official web portal to all federal, state and local government web resources and services.